Time;durP1;ratioP1;P1;durP2;ratioP2;P2;SDS_P1;SDS_P2;PMS_P1;PMS_P2;Temp;Humidity;BMP_temperature;BMP_pressure;BME280_temperature;BME280_humidity;BME280_pressure;Samples;Min_cycle;Max_cycle;Signal;HPM_P1;HPM_P2
2021/11/23 00:01:22;;;;;;;5.57;5.03;;;;;;;4.74;73.17;102095.91;6252110;23;20753;-75
2021/11/23 00:04:34;;;;;;;3.70;3.40;;;;;;;4.78;73.22;102102.66;6218208;23;20042;-76
2021/11/23 00:07:41;;;;;;;4.97;4.65;;;;;;;4.86;72.98;102116.09;6224330;23;20085;-75
2021/11/23 00:10:25;;;;;;;;;;;;;;;;;;;;;
2021/11/23 00:13:12;;;;;;;4.80;4.03;;;;;;;4.86;73.24;102110.66;6250457;23;20036;-74
2021/11/23 00:15:38;;;;;;;6.50;4.45;;;;;;;4.83;73.64;102111.06;6249077;22;20012;-74
2021/11/23 00:32:53;;;;;;;;;;;;;;;;;;;;;
2021/11/23 00:39:14;;;;;;;;;;;;;;;;;;;;;
2021/11/23 00:41:49;;;;;;;4.95;4.15;;;;;;;4.65;74.11;102087.88;6133246;23;20092;-71
2021/11/23 00:44:52;;;;;;;4.65;4.25;;;;;;;4.74;73.44;102101.34;6126451;23;20005;-73
2021/11/23 00:47:20;;;;;;;5.50;5.00;;;;;;;4.61;73.78;102081.13;6122065;23;20092;-71
2021/11/23 00:49:46;;;;;;;7.68;5.80;;;;;;;4.71;73.44;102091.69;6145984;23;20021;-74
2021/11/23 00:52:12;;;;;;;9.20;5.68;;;;;;;4.71;74.34;102089.81;6223920;23;20040;-72
2021/11/23 00:54:38;;;;;;;7.05;5.30;;;;;;;4.74;73.68;102096.75;6213662;23;20008;-73
2021/11/23 00:57:04;;;;;;;6.55;5.82;;;;;;;4.71;74.08;102089.81;6243372;23;20069;-73
2021/11/23 00:59:30;;;;;;;5.80;5.22;;;;;;;4.69;73.30;102093.78;6242148;23;20027;-74
2021/11/23 01:01:56;;;;;;;9.18;5.72;;;;;;;4.67;73.98;102093.09;6215648;23;20350;-72
2021/11/23 01:04:25;;;;;;;4.50;4.25;;;;;;;4.65;73.48;102100.59;6213714;23;20004;-74
2021/11/23 01:06:50;;;;;;;5.60;4.30;;;;;;;4.60;73.97;102114.69;6242690;23;20031;-75
2021/11/23 01:09:16;;;;;;;3.95;3.60;;;;;;;4.55;74.29;102107.09;6215348;23;20065;-74
2021/11/23 01:11:42;;;;;;;9.80;3.53;;;;;;;4.51;74.19;102113.94;6215030;23;20012;-74
2021/11/23 01:14:08;;;;;;;3.78;3.47;;;;;;;4.40;74.08;102094.56;6243449;22;20000;-76
2021/11/23 01:16:35;;;;;;;4.10;3.25;;;;;;;4.35;73.49;102098.69;6214355;23;20015;-76
2021/11/23 01:19:00;;;;;;;3.63;3.33;;;;;;;4.34;73.84;102102.41;6215278;23;20008;-73
2021/11/23 01:21:26;;;;;;;5.32;3.13;;;;;;;4.36;74.02;102105.75;6239916;23;20489;-75
2021/11/23 01:23:53;;;;;;;3.13;2.90;;;;;;;4.33;73.92;102100.72;6242216;23;20001;-76
2021/11/23 01:26:20;;;;;;;3.00;2.80;;;;;;;4.29;74.01;102103.97;6211909;23;20437;-75
2021/11/23 01:28:45;;;;;;;3.75;2.75;;;;;;;4.23;74.02;102094.69;6210876;23;20492;-74
2021/11/23 01:31:11;;;;;;;2.78;2.67;;;;;;;4.21;73.49;102090.53;6212094;23;20091;-75
2021/11/23 01:33:37;;;;;;;8.00;3.00;;;;;;;4.19;73.67;102096.09;6214132;23;20091;-75
2021/11/23 01:36:02;;;;;;;3.72;3.40;;;;;;;4.13;74.08;102086.00;6214548;23;20095;-75
2021/11/23 01:38:28;;;;;;;3.03;2.83;;;;;;;4.11;73.73;102088.06;6212913;23;20000;-74
2021/11/23 01:40:53;;;;;;;4.70;3.65;;;;;;;4.09;73.90;102081.97;6241724;23;20004;-75
2021/11/23 01:43:19;;;;;;;4.93;4.43;;;;;;;4.09;73.78;102076.56;6212898;23;20422;-76
2021/11/23 01:45:44;;;;;;;5.22;4.72;;;;;;;4.07;73.69;102084.84;6243414;23;20008;-75
2021/11/23 01:48:12;;;;;;;3.60;3.40;;;;;;;4.00;73.94;102073.06;6214752;23;20018;-76
2021/11/23 01:50:38;;;;;;;9.02;6.07;;;;;;;4.00;73.58;102067.66;6215102;23;20004;-76
2021/11/23 01:53:06;;;;;;;8.38;4.55;;;;;;;3.99;73.72;102057.88;6185622;23;20504;-75
2021/11/23 01:55:36;;;;;;;6.65;4.72;;;;;;;4.00;74.00;102057.69;6215319;23;20004;-75
2021/11/23 01:58:05;;;;;;;4.43;4.05;;;;;;;4.02;73.74;102050.22;6238484;23;20008;-75
2021/11/23 02:00:32;;;;;;;4.32;3.92;;;;;;;4.00;74.16;102046.84;6266803;22;20008;-75
2021/11/23 02:02:58;;;;;;;4.13;3.80;;;;;;;3.99;74.25;102034.34;6178921;23;20315;-75
2021/11/23 02:05:24;;;;;;;3.83;3.53;;;;;;;4.04;73.59;102043.78;6238755;23;20016;-76
2021/11/23 02:07:49;;;;;;;9.95;3.75;;;;;;;4.07;73.76;102040.72;6190434;23;20008;-75
2021/11/23 02:10:15;;;;;;;6.22;4.10;;;;;;;4.10;73.71;102048.47;6190212;23;20042;-76
2021/11/23 02:12:44;;;;;;;6.65;4.32;;;;;;;4.19;74.21;102059.03;6215970;23;20004;-76
2021/11/23 02:15:16;;;;;;;7.05;4.38;;;;;;;4.25;74.14;102054.75;6227556;22;20780;-75
2021/11/23 02:17:44;;;;;;;4.90;4.45;;;;;;;4.29;74.17;102060.63;6219290;23;20015;-75
2021/11/23 02:20:12;;;;;;;4.75;4.35;;;;;;;4.35;73.65;102060.75;6241748;23;20016;-75
2021/11/23 02:22:38;;;;;;;10.18;4.35;;;;;;;4.36;73.82;102062.41;6242924;23;20004;-76
2021/11/23 02:25:05;;;;;;;9.57;4.40;;;;;;;4.39;73.31;102060.38;6214150;23;20102;-75
2021/11/23 02:27:31;;;;;;;4.47;3.25;;;;;;;4.35;73.14;102068.88;6213504;23;20087;-76
2021/11/23 02:29:56;;;;;;;3.83;3.53;;;;;;;4.30;73.54;102060.44;6240781;23;20000;-77
2021/11/23 02:32:22;;;;;;;7.18;4.75;;;;;;;4.27;73.25;102068.94;6212705;23;20424;-73
2021/11/23 02:34:47;;;;;;;5.82;4.35;;;;;;;4.28;73.36;102065.22;6165686;23;20004;-73
2021/11/23 02:37:13;;;;;;;3.60;3.22;;;;;;;4.24;74.00;102058.47;6191874;23;20015;-71
2021/11/23 02:39:38;;;;;;;5.75;3.78;;;;;;;4.30;73.37;102063.16;6237749;23;20086;-70
2021/11/23 02:42:04;;;;;;;8.32;3.83;;;;;;;4.27;73.61;102058.13;6215661;23;20008;-71
2021/11/23 02:44:29;;;;;;;3.90;3.63;;;;;;;4.23;72.99;102064.09;6243991;23;20091;-71
2021/11/23 02:46:55;;;;;;;4.25;3.67;;;;;;;4.17;73.37;102057.53;6239232;23;20035;-72
2021/11/23 02:49:21;;;;;;;3.63;3.28;;;;;;;4.11;73.20;102063.69;6215699;23;20431;-71
2021/11/23 02:51:47;;;;;;;3.33;3.13;;;;;;;4.04;73.23;102051.91;6163746;23;20139;-72
2021/11/23 02:54:13;;;;;;;4.35;3.67;;;;;;;3.93;73.64;102051.31;6244353;23;20465;-72
2021/11/23 02:56:38;;;;;;;2.30;2.15;;;;;;;3.93;73.74;102058.56;6242459;23;20083;-72
2021/11/23 02:59:04;;;;;;;2.65;2.25;;;;;;;3.89;73.51;102057.28;6215934;23;20130;-72
2021/11/23 03:01:29;;;;;;;1.98;1.88;;;;;;;3.83;73.69;102061.56;6216427;23;20011;-73
2021/11/23 03:03:55;;;;;;;1.77;1.67;;;;;;;3.77;73.25;102051.47;6215250;23;20015;-72
2021/11/23 03:06:22;;;;;;;2.00;1.90;;;;;;;3.69;73.58;102048.81;6217417;23;20006;-72
2021/11/23 03:08:49;;;;;;;2.58;1.80;;;;;;;3.62;73.34;102038.72;6214372;23;20004;-72
2021/11/23 03:11:17;;;;;;;2.70;1.90;;;;;;;3.59;73.82;102041.78;6245052;23;20027;-73
2021/11/23 03:13:43;;;;;;;3.70;1.67;;;;;;;3.55;73.50;102043.16;6241665;23;20008;-72
2021/11/23 03:16:09;;;;;;;5.75;1.98;;;;;;;3.45;73.76;102032.56;6207169;23;20059;-73
2021/11/23 03:18:34;;;;;;;1.95;1.85;;;;;;;3.50;73.51;102042.84;6212865;23;20028;-73
2021/11/23 03:21:00;;;;;;;1.52;1.30;;;;;;;3.45;73.36;102039.84;6190353;23;20013;-72
2021/11/23 03:23:26;;;;;;;1.00;0.95;;;;;;;3.43;73.53;102045.44;6225617;23;20012;-73
2021/11/23 03:25:51;;;;;;;2.90;1.75;;;;;;;3.40;73.71;102034.13;6222107;23;20009;-74
2021/11/23 03:28:17;;;;;;;1.83;1.65;;;;;;;3.42;73.52;102048.31;6237206;23;19988;-73
2021/11/23 03:30:42;;;;;;;1.67;1.55;;;;;;;3.35;73.45;102041.94;6236968;23;19996;-73
2021/11/23 03:33:09;;;;;;;1.40;1.30;;;;;;;3.37;73.61;102051.53;6210056;23;20013;-74
2021/11/23 03:35:37;;;;;;;0.80;0.80;;;;;;;3.31;73.67;102053.13;6213040;23;20004;-72
2021/11/23 03:38:05;;;;;;;1.67;1.58;;;;;;;3.29;73.49;102055.13;6207531;23;20005;-74
2021/11/23 03:40:33;;;;;;;1.20;0.80;;;;;;;3.22;73.73;102043.34;6212180;23;20005;-73
2021/11/23 03:43:00;;;;;;;2.00;1.50;;;;;;;3.23;73.42;102046.91;6213849;23;20316;-74
2021/11/23 03:45:26;;;;;;;1.38;1.33;;;;;;;3.22;73.51;102053.31;6210875;23;20021;-73
2021/11/23 03:47:52;;;;;;;1.38;1.27;;;;;;;3.20;73.38;102050.81;6212792;23;20040;-75
2021/11/23 03:50:18;;;;;;;2.03;1.52;;;;;;;3.11;73.46;102041.03;6211606;23;20009;-73
2021/11/23 03:52:46;;;;;;;1.48;1.38;;;;;;;3.13;73.70;102042.53;6207498;23;20289;-74
2021/11/23 03:55:16;;;;;;;1.67;1.58;;;;;;;3.13;73.65;102041.72;6212430;23;20335;-74
2021/11/23 03:57:43;;;;;;;2.20;1.92;;;;;;;3.14;73.71;102041.53;6206170;23;20004;-73
2021/11/23 04:00:10;;;;;;;2.55;1.83;;;;;;;3.16;73.56;102043.22;6210782;23;20012;-73
2021/11/23 04:02:36;;;;;;;6.63;3.20;;;;;;;3.17;73.22;102036.78;6207683;23;20008;-73
2021/11/23 04:05:02;;;;;;;4.05;1.73;;;;;;;3.17;73.51;102023.25;6212549;23;20016;-74
2021/11/23 04:07:27;;;;;;;2.10;1.92;;;;;;;3.20;73.83;102028.31;6210765;23;20087;-75
2021/11/23 04:09:53;;;;;;;1.85;1.75;;;;;;;3.22;73.69;102037.09;6211908;23;20095;-72
2021/11/23 04:12:18;;;;;;;1.77;1.67;;;;;;;3.22;73.45;102027.13;6209503;23;20008;-74
2021/11/23 04:14:44;;;;;;;2.05;1.95;;;;;;;3.25;73.60;102025.94;6214224;22;20001;-72
2021/11/23 04:17:10;;;;;;;5.93;2.17;;;;;;;3.26;73.68;102028.44;6241538;23;20010;-72
2021/11/23 04:19:36;;;;;;;2.33;2.20;;;;;;;3.25;73.31;102015.94;6243795;23;20016;-72
2021/11/23 04:22:03;;;;;;;2.55;2.10;;;;;;;3.22;73.93;102015.47;6215854;23;20024;-72
2021/11/23 04:24:29;;;;;;;3.17;2.00;;;;;;;3.23;73.48;102018.00;6210587;23;20058;-72
2021/11/23 04:26:55;;;;;;;2.30;2.20;;;;;;;3.19;73.51;102011.25;6215680;23;20016;-73
2021/11/23 04:29:21;;;;;;;3.15;1.80;;;;;;;3.16;73.80;102006.22;6242205;23;20487;-74
2021/11/23 04:31:48;;;;;;;1.85;1.75;;;;;;;3.12;73.80;102010.28;6216082;23;20008;-72
2021/11/23 04:34:13;;;;;;;1.98;1.65;;;;;;;3.08;74.04;102008.94;6243102;23;20134;-75
2021/11/23 04:36:39;;;;;;;2.58;2.38;;;;;;;3.05;73.55;102015.56;6192211;23;20059;-72
2021/11/23 04:39:07;;;;;;;2.88;2.67;;;;;;;2.96;73.39;102009.38;6216159;23;20022;-72
2021/11/23 04:41:33;;;;;;;3.40;3.03;;;;;;;2.95;73.67;102014.94;6217262;23;20058;-73
2021/11/23 04:43:58;;;;;;;3.35;3.05;;;;;;;2.89;73.33;102016.50;6237938;23;20486;-73
2021/11/23 04:46:24;;;;;;;2.65;2.45;;;;;;;2.85;73.64;102025.97;6167486;23;20039;-74
2021/11/23 04:48:49;;;;;;;2.22;2.13;;;;;;;2.79;74.12;102021.28;6191224;23;20012;-72
2021/11/23 04:51:15;;;;;;;2.28;2.13;;;;;;;2.75;74.22;102006.41;6215457;23;20023;-74
2021/11/23 04:53:41;;;;;;;2.00;1.60;;;;;;;2.79;73.53;102021.28;6215711;23;20005;-72
2021/11/23 04:56:06;;;;;;;4.93;1.90;;;;;;;2.80;74.14;102017.53;6205626;23;20410;-71
2021/11/23 04:58:32;;;;;;;1.85;1.60;;;;;;;2.84;73.71;102012.63;6189563;23;20004;-72
2021/11/23 05:00:58;;;;;;;2.60;2.40;;;;;;;2.86;74.19;102014.16;6242058;23;20004;-72
2021/11/23 05:03:25;;;;;;;3.33;2.80;;;;;;;2.89;73.59;102015.63;6213820;23;20012;-72
2021/11/23 05:05:51;;;;;;;4.65;2.50;;;;;;;2.89;73.72;102012.94;6214469;23;20035;-72
2021/11/23 05:08:16;;;;;;;2.90;2.70;;;;;;;2.93;74.20;102012.41;6164248;23;20632;-71
2021/11/23 05:10:42;;;;;;;2.40;2.30;;;;;;;2.93;74.08;102017.81;6216835;23;20012;-72
2021/11/23 05:13:07;;;;;;;2.63;2.33;;;;;;;3.01;74.12;102029.59;6162382;23;20012;-76
2021/11/23 05:15:33;;;;;;;3.60;3.30;;;;;;;3.02;74.11;102034.00;6243751;22;20431;-77
2021/11/23 05:17:58;;;;;;;4.72;3.20;;;;;;;3.03;74.29;102032.97;6242684;23;20004;-76
2021/11/23 05:20:24;;;;;;;4.28;3.97;;;;;;;3.02;74.19;102031.28;6218580;23;20008;-76
2021/11/23 05:22:49;;;;;;;5.68;4.45;;;;;;;3.04;74.03;102034.66;6245461;23;20008;-76
2021/11/23 05:25:15;;;;;;;5.60;5.18;;;;;;;3.00;74.10;102026.06;6212142;23;20019;-76
2021/11/23 05:27:41;;;;;;;5.10;4.72;;;;;;;3.03;74.23;102024.88;6223047;23;20031;-77
2021/11/23 05:30:16;;;;;;;6.05;3.90;;;;;;;3.00;74.32;102019.81;6195027;23;20012;-77
2021/11/23 05:32:45;;;;;;;5.93;4.00;;;;;;;2.95;74.48;102007.69;6218424;23;20776;-77
2021/11/23 05:35:12;;;;;;;5.50;4.78;;;;;;;2.99;74.43;102021.66;6216235;23;20008;-77
2021/11/23 05:37:37;;;;;;;6.63;5.55;;;;;;;2.95;74.33;102018.50;6241749;23;20007;-78
2021/11/23 05:40:05;;;;;;;6.70;4.68;;;;;;;2.91;74.52;102009.03;6245263;23;20004;-77
2021/11/23 05:42:31;;;;;;;5.68;5.18;;;;;;;2.90;74.58;102011.91;6243696;23;20090;-76
2021/11/23 05:44:57;;;;;;;4.22;3.92;;;;;;;2.89;74.59;102011.09;6244855;23;20647;-77
2021/11/23 05:47:23;;;;;;;4.07;3.78;;;;;;;2.87;74.58;102017.69;6242311;23;20438;-77
2021/11/23 05:49:49;;;;;;;4.38;3.97;;;;;;;2.80;74.99;102017.53;6244615;23;20007;-76
2021/11/23 05:52:15;;;;;;;6.43;4.13;;;;;;;2.80;75.15;102017.53;6217656;23;20339;-77
2021/11/23 05:54:41;;;;;;;3.42;3.15;;;;;;;2.78;74.55;102009.59;6217627;23;20006;-77
2021/11/23 05:57:06;;;;;;;4.45;3.90;;;;;;;2.84;74.80;102018.88;6245007;23;20004;-78
2021/11/23 05:59:32;;;;;;;6.45;4.00;;;;;;;2.82;74.97;102007.41;6218346;23;20327;-76
2021/11/23 06:01:57;;;;;;;4.20;4.00;;;;;;;2.76;74.97;102010.78;6244091;23;20054;-77
2021/11/23 06:04:23;;;;;;;6.72;4.72;;;;;;;2.78;74.47;102019.56;6213371;23;20019;-76
2021/11/23 06:06:48;;;;;;;5.72;5.35;;;;;;;2.76;74.87;102021.59;6244197;23;20059;-76
2021/11/23 06:09:14;;;;;;;5.93;5.45;;;;;;;2.73;74.90;102021.94;6241752;23;20008;-77
2021/11/23 06:11:39;;;;;;;7.97;6.03;;;;;;;2.70;74.96;102025.00;6246360;23;20011;-78
2021/11/23 06:14:07;;;;;;;9.40;4.38;;;;;;;2.65;75.47;102019.28;6188401;23;20000;-77
2021/11/23 06:16:37;;;;;;;3.78;3.58;;;;;;;2.58;74.97;102017.28;6245033;22;20312;-77
2021/11/23 06:19:03;;;;;;;3.70;3.50;;;;;;;2.61;75.22;102025.06;6218547;23;20383;-78
2021/11/23 06:21:28;;;;;;;11.70;3.15;;;;;;;2.56;75.43;102027.41;6215998;23;20054;-77
2021/11/23 06:23:54;;;;;;;3.33;2.95;;;;;;;2.55;75.23;102031.13;6217960;23;20018;-76
2021/11/23 06:26:23;;;;;;;3.25;3.05;;;;;;;2.50;75.11;102028.13;6244123;23;20035;-76
2021/11/23 06:28:49;;;;;;;3.08;2.88;;;;;;;2.49;75.60;102031.81;6244522;23;20004;-78
2021/11/23 06:31:15;;;;;;;5.32;1.92;;;;;;;2.53;75.30;102041.28;6214759;23;20008;-77
2021/11/23 06:33:40;;;;;;;2.58;2.47;;;;;;;2.57;75.18;102039.91;6216281;23;20008;-78
2021/11/23 06:36:06;;;;;;;2.47;2.20;;;;;;;2.57;75.45;102029.09;6215704;23;20020;-77
2021/11/23 06:38:33;;;;;;;2.50;2.35;;;;;;;2.59;75.30;102037.88;6215601;23;20011;-76
2021/11/23 06:40:58;;;;;;;3.67;2.13;;;;;;;2.61;75.38;102029.59;6244060;23;20079;-78
2021/11/23 06:43:24;;;;;;;1.98;1.88;;;;;;;2.62;75.33;102017.78;6213882;23;20073;-78
2021/11/23 06:45:49;;;;;;;2.10;1.90;;;;;;;2.67;74.65;102028.06;6193151;23;20011;-76
2021/11/23 06:48:15;;;;;;;1.92;1.83;;;;;;;2.64;74.99;102009.50;6243138;23;20027;-78
2021/11/23 06:50:42;;;;;;;3.78;3.55;;;;;;;2.76;75.17;102025.16;6216440;23;20007;-76
2021/11/23 06:53:13;;;;;;;3.35;3.15;;;;;;;2.77;75.55;102026.00;6192141;23;20051;-75
2021/11/23 06:55:43;;;;;;;3.92;3.30;;;;;;;2.72;75.12;102004.06;6241923;23;20311;-76
2021/11/23 06:58:09;;;;;;;4.45;4.15;;;;;;;2.80;74.93;102017.53;6241693;23;20423;-75
2021/11/23 07:00:35;;;;;;;6.03;5.05;;;;;;;2.78;75.30;102019.56;6215844;23;20009;-75
2021/11/23 07:03:00;;;;;;;6.28;4.07;;;;;;;2.86;75.11;102043.88;6218027;23;20322;-75
2021/11/23 07:05:26;;;;;;;5.32;5.03;;;;;;;2.77;75.48;102021.44;6213676;23;20008;-77
2021/11/23 07:07:52;;;;;;;4.60;4.13;;;;;;;2.82;75.58;102031.72;6243821;23;20012;-76
2021/11/23 07:10:18;;;;;;;4.95;4.47;;;;;;;2.79;75.43;102037.47;6218753;23;20012;-77
2021/11/23 07:12:43;;;;;;;3.28;3.05;;;;;;;2.73;75.79;102021.94;6243087;23;19999;-76
2021/11/23 07:15:10;;;;;;;3.03;2.83;;;;;;;2.68;75.43;102016.25;6209435;22;20017;-74
2021/11/23 07:17:42;;;;;;;2.15;2.05;;;;;;;2.65;75.11;102024.69;6214539;23;20012;-74
2021/11/23 07:20:08;;;;;;;3.30;1.80;;;;;;;2.55;75.11;102014.91;6188318;23;20004;-75
2021/11/23 07:22:34;;;;;;;2.05;1.95;;;;;;;2.65;75.52;102024.69;6186798;23;20070;-76
2021/11/23 07:24:59;;;;;;;1.55;1.45;;;;;;;2.64;75.27;102028.41;6212800;23;20019;-75
2021/11/23 07:27:25;;;;;;;6.15;2.25;;;;;;;2.64;75.38;102023.00;6215881;23;20363;-75
2021/11/23 07:29:50;;;;;;;1.55;1.45;;;;;;;2.63;74.84;102027.56;6212316;23;20092;-75
2021/11/23 07:32:16;;;;;;;1.65;1.00;;;;;;;2.61;75.20;102027.75;6214700;23;20008;-74
2021/11/23 07:34:41;;;;;;;2.15;1.50;;;;;;;2.64;75.02;102017.59;6188051;23;20007;-75
2021/11/23 07:37:07;;;;;;;1.88;1.77;;;;;;;2.67;74.93;102017.25;6214445;23;20415;-75
2021/11/23 07:39:34;;;;;;;1.45;1.25;;;;;;;2.68;75.12;102033.28;6227587;23;20364;-74
2021/11/23 07:41:59;;;;;;;2.72;2.53;;;;;;;2.68;75.36;102035.16;6232873;23;20028;-72
2021/11/23 07:44:25;;;;;;;3.20;3.00;;;;;;;2.68;75.40;102043.25;6182365;23;20020;-73
2021/11/23 07:46:50;;;;;;;3.25;3.13;;;;;;;2.65;75.38;102039.03;6215640;23;20009;-74
2021/11/23 07:49:26;;;;;;;3.33;3.05;;;;;;;2.57;74.98;102026.41;6214773;23;20008;-74
2021/11/23 07:51:51;;;;;;;3.00;2.70;;;;;;;2.59;75.88;102040.56;6213010;23;20062;-74
2021/11/23 07:54:19;;;;;;;2.60;2.50;;;;;;;2.51;75.42;102029.81;6214632;23;20359;-76
2021/11/23 07:56:50;;;;;;;1.15;1.15;;;;;;;2.61;75.52;102052.06;6213685;23;20005;-74
2021/11/23 07:59:15;;;;;;;1.60;1.50;;;;;;;2.67;75.32;102055.06;6213610;23;20495;-74
2021/11/23 08:01:41;;;;;;;0.90;0.90;;;;;;;2.67;75.36;102055.06;6213310;23;20008;-72
2021/11/23 08:04:06;;;;;;;1.08;1.02;;;;;;;2.72;74.99;102055.41;6211143;23;20407;-75
2021/11/23 08:06:32;;;;;;;1.15;1.05;;;;;;;2.77;75.44;102058.41;6228301;23;20098;-77
2021/11/23 08:08:57;;;;;;;1.30;0.80;;;;;;;2.83;74.89;102064.97;6234642;23;20016;-78
2021/11/23 08:11:23;;;;;;;1.80;1.70;;;;;;;2.88;75.30;102063.44;6204636;23;20016;-74
2021/11/23 08:13:49;;;;;;;1.40;1.17;;;;;;;2.90;75.51;102050.59;6197856;23;20067;-74
2021/11/23 08:16:14;;;;;;;1.08;1.05;;;;;;;3.03;75.28;102066.25;6230799;22;20077;-74
2021/11/23 08:18:40;;;;;;;1.50;1.05;;;;;;;3.04;75.62;102056.25;6215105;23;20008;-75
2021/11/23 08:21:06;;;;;;;1.40;1.30;;;;;;;3.11;75.05;102059.94;6216256;23;20038;-73
2021/11/23 08:23:32;;;;;;;2.95;1.42;;;;;;;3.21;74.86;102052.47;6189795;23;20339;-74
2021/11/23 08:26:01;;;;;;;0.90;0.90;;;;;;;3.39;75.05;102073.00;6243490;23;20095;-74
2021/11/23 08:28:27;;;;;;;1.70;1.60;;;;;;;3.47;75.22;102070.25;6242959;23;20092;-73
2021/11/23 08:30:55;;;;;;;2.67;2.58;;;;;;;3.57;74.81;102070.84;6216433;23;20043;-73
2021/11/23 08:33:21;;;;;;;2.47;2.28;;;;;;;3.66;75.38;102077.06;6243984;23;20273;-73
2021/11/23 08:35:46;;;;;;;1.77;1.67;;;;;;;3.81;75.15;102080.69;6217681;23;20019;-73
2021/11/23 08:38:12;;;;;;;1.80;1.70;;;;;;;3.94;74.97;102087.34;6215808;23;20008;-74
2021/11/23 08:40:40;;;;;;;1.25;1.25;;;;;;;4.04;74.61;102089.81;6238147;23;20442;-74
2021/11/23 08:43:07;;;;;;;2.03;1.92;;;;;;;4.12;74.79;102076.22;6241622;23;20034;-74
2021/11/23 08:45:35;;;;;;;5.32;2.28;;;;;;;4.51;74.74;102103.09;6226776;23;20087;-74
2021/11/23 08:48:01;;;;;;;2.50;2.40;;;;;;;4.75;74.40;102103.03;6215551;23;20745;-74
2021/11/23 08:50:28;;;;;;;3.17;2.97;;;;;;;4.96;73.77;102116.66;6238567;23;20012;-74
2021/11/23 08:52:57;;;;;;;3.65;2.67;;;;;;;5.11;74.16;102118.53;6243594;23;20075;-74
2021/11/23 08:55:23;;;;;;;4.22;3.97;;;;;;;5.23;73.66;102127.88;6212565;23;20422;-74
2021/11/23 08:57:49;;;;;;;4.35;4.05;;;;;;;5.34;74.35;102130.09;6213622;23;20019;-75
2021/11/23 09:00:17;;;;;;;3.38;3.17;;;;;;;5.51;73.59;102132.59;6190458;23;20069;-73
2021/11/23 09:02:46;;;;;;;8.70;6.65;;;;;;;5.58;73.31;102125.38;6191709;23;20145;-73
2021/11/23 09:05:12;;;;;;;10.60;7.63;;;;;;;5.60;73.11;102135.00;6208955;23;20015;-74
2021/11/23 09:07:42;;;;;;;11.50;7.90;;;;;;;5.55;72.99;102125.78;6216772;23;20004;-74
2021/11/23 09:10:17;;;;;;;10.13;8.32;;;;;;;5.57;73.67;102137.28;6168505;23;20079;-73
2021/11/23 09:12:42;;;;;;;6.25;5.75;;;;;;;5.53;73.74;102128.66;6243848;23;20004;-74
2021/11/23 09:15:08;;;;;;;6.38;5.90;;;;;;;5.67;74.02;102140.53;6243610;22;20019;-74
2021/11/23 09:17:34;;;;;;;6.88;6.28;;;;;;;5.77;73.36;102141.03;6215867;23;20004;-74
2021/11/23 09:19:59;;;;;;;9.77;6.85;;;;;;;5.81;73.02;102141.53;6239967;23;20015;-74
2021/11/23 09:22:25;;;;;;;6.63;5.75;;;;;;;5.83;72.85;102133.19;6241337;23;20348;-73
2021/11/23 09:24:51;;;;;;;4.75;4.35;;;;;;;5.87;72.98;102138.03;6190958;23;20015;-74
2021/11/23 09:27:16;;;;;;;3.47;3.25;;;;;;;5.97;73.15;102142.28;6218042;23;20035;-73
2021/11/23 09:29:42;;;;;;;3.03;2.90;;;;;;;6.09;72.55;102146.22;6237321;23;20015;-74
2021/11/23 09:32:07;;;;;;;3.20;3.10;;;;;;;6.13;72.54;102138.50;6211083;23;20023;-74
2021/11/23 09:34:33;;;;;;;2.67;2.58;;;;;;;6.17;72.42;102146.06;6188937;23;20411;-74
2021/11/23 09:36:59;;;;;;;3.13;2.90;;;;;;;6.22;72.60;102140.06;6214391;23;20008;-73
2021/11/23 09:39:25;;;;;;;4.35;4.05;;;;;;;6.34;72.96;102141.22;6244113;23;20062;-77
2021/11/23 09:41:52;;;;;;;5.20;4.80;;;;;;;6.43;72.83;102145.47;6241972;23;20011;-74
2021/11/23 09:44:18;;;;;;;7.00;4.93;;;;;;;6.54;72.87;102141.41;6237909;23;20071;-75
2021/11/23 09:46:44;;;;;;;4.72;4.30;;;;;;;6.61;72.17;102136.00;6242546;23;20035;-72
2021/11/23 09:49:10;;;;;;;6.07;5.28;;;;;;;6.71;72.36;102139.19;6212090;23;20335;-73
2021/11/23 09:51:36;;;;;;;4.95;4.53;;;;;;;6.81;72.73;102141.56;6215153;23;20019;-74
2021/11/23 09:54:14;;;;;;;5.68;5.18;;;;;;;6.85;72.44;102132.00;6237619;23;20034;-73
2021/11/23 09:56:44;;;;;;;6.82;6.22;;;;;;;6.86;72.82;102121.94;6241647;23;20491;-72
2021/11/23 09:59:13;;;;;;;6.68;6.00;;;;;;;7.01;72.62;102136.28;6215350;23;20008;-73
2021/11/23 10:01:46;;;;;;;6.32;5.68;;;;;;;7.15;72.47;102132.59;6213185;23;20007;-74
2021/11/23 10:04:12;;;;;;;5.15;4.85;;;;;;;7.20;72.37;102131.13;6238329;23;20008;-74
2021/11/23 10:07:09;;;;;;;5.63;5.05;;;;;;;7.30;71.91;102142.47;6215136;23;20407;-73
2021/11/23 10:09:43;;;;;;;8.52;6.55;;;;;;;7.35;72.72;102137.28;6213661;23;20004;-74
2021/11/23 10:12:24;;;;;;;7.80;5.07;;;;;;;7.42;71.75;102143.59;6241804;23;20008;-73
2021/11/23 10:15:13;;;;;;;5.95;4.80;;;;;;;7.54;72.74;102134.84;6239016;22;20023;-73
2021/11/23 10:17:43;;;;;;;5.22;4.70;;;;;;;7.60;72.24;102129.41;6216924;23;20004;-73
2021/11/23 10:20:36;;;;;;;4.80;4.35;;;;;;;7.76;71.77;102125.47;6241547;23;20000;-73
2021/11/23 10:23:30;;;;;;;4.40;4.07;;;;;;;7.92;71.61;102137.03;6208565;23;20008;-73
2021/11/23 10:26:13;;;;;;;5.00;4.60;;;;;;;8.00;71.61;102129.53;6234848;23;20103;-72
2021/11/23 10:28:43;;;;;;;8.10;5.00;;;;;;;7.98;71.55;102119.88;6212409;23;20085;-72
2021/11/23 10:31:09;;;;;;;7.75;4.40;;;;;;;8.13;71.21;102123.25;6242325;23;20000;-72
2021/11/23 10:33:37;;;;;;;8.15;5.85;;;;;;;8.16;71.18;102124.69;6211338;23;20011;-72
2021/11/23 10:36:09;;;;;;;10.85;5.47;;;;;;;8.18;70.79;102126.19;6240280;23;20370;-72
2021/11/23 10:38:37;;;;;;;11.32;6.38;;;;;;;8.21;70.62;102128.47;6238346;23;20000;-71
2021/11/23 10:41:09;;;;;;;6.57;5.38;;;;;;;8.23;70.99;102111.09;6239882;23;20304;-73
2021/11/23 10:43:37;;;;;;;7.10;5.47;;;;;;;8.32;71.12;102120.72;6213541;23;20042;-71
2021/11/23 10:46:03;;;;;;;9.45;5.50;;;;;;;8.37;70.54;102118.22;6241288;23;20338;-72
2021/11/23 10:48:30;;;;;;;5.43;5.03;;;;;;;8.42;70.41;102110.25;6237798;23;20003;-73
2021/11/23 10:51:06;;;;;;;4.40;4.05;;;;;;;8.53;70.46;102109.66;6211961;23;20328;-73
2021/11/23 10:53:33;;;;;;;9.85;6.05;;;;;;;8.64;70.58;102107.31;6243190;23;20036;-72
2021/11/23 10:56:14;;;;;;;6.07;5.68;;;;;;;8.75;70.59;102109.41;6189108;23;20011;-72
2021/11/23 10:58:42;;;;;;;5.55;4.97;;;;;;;8.78;70.29;102103.53;6246985;23;20008;-72
2021/11/23 11:01:10;;;;;;;6.97;5.25;;;;;;;8.90;69.61;102099.06;6241462;23;21099;-71
2021/11/23 11:03:37;;;;;;;4.40;4.10;;;;;;;9.01;69.94;102096.75;6224931;23;20011;-72
2021/11/23 11:06:06;;;;;;;4.82;4.43;;;;;;;9.10;69.70;102095.47;6255285;23;20011;-76
2021/11/23 11:08:43;;;;;;;4.80;4.47;;;;;;;9.17;69.64;102096.28;6255900;23;20014;-71
2021/11/23 11:11:22;;;;;;;8.85;5.15;;;;;;;9.20;69.28;102095.84;6260418;23;20024;-73
2021/11/23 11:13:53;;;;;;;4.45;4.13;;;;;;;9.28;69.27;102086.56;6262776;22;20027;-72
2021/11/23 11:16:33;;;;;;;6.40;5.85;;;;;;;9.32;68.74;102084.25;6249107;23;20382;-73
2021/11/23 11:19:07;;;;;;;5.13;4.75;;;;;;;9.38;68.61;102088.84;6247486;23;19996;-73
2021/11/23 11:21:48;;;;;;;4.40;4.07;;;;;;;9.46;68.20;102076.81;6217063;23;20083;-73
2021/11/23 11:24:27;;;;;;;4.07;3.75;;;;;;;9.50;68.58;102078.91;6213282;23;20004;-72
2021/11/23 11:27:00;;;;;;;3.20;3.03;;;;;;;9.56;68.53;102083.50;6247195;23;20004;-73
2021/11/23 11:29:30;;;;;;;3.97;3.78;;;;;;;9.62;68.07;102084.50;6215801;23;20103;-73
2021/11/23 11:31:58;;;;;;;4.22;3.53;;;;;;;9.66;68.32;102079.44;6242281;23;20447;-74
2021/11/23 11:34:27;;;;;;;3.10;2.90;;;;;;;9.72;68.09;102073.94;6218998;23;20325;-73
2021/11/23 11:37:04;;;;;;;3.20;3.00;;;;;;;9.82;68.00;102073.47;6242708;23;20004;-73
2021/11/23 11:39:36;;;;;;;4.45;4.10;;;;;;;9.93;68.06;102071.94;6244694;23;20000;-72
2021/11/23 11:42:20;;;;;;;4.05;3.55;;;;;;;10.04;67.80;102067.63;6240434;23;20004;-75
2021/11/23 11:45:02;;;;;;;;;;;;;;;;;;;;;
2021/11/23 11:47:40;;;;;;;3.63;3.42;;;;;;;10.41;67.18;102049.47;6242410;23;20111;-74
2021/11/23 11:50:09;;;;;;;3.28;3.08;;;;;;;10.62;67.17;102055.56;6215916;23;20015;-75
2021/11/23 11:52:57;;;;;;;2.95;2.75;;;;;;;10.89;66.96;102056.09;6241478;23;20008;-73
2021/11/23 11:55:26;;;;;;;2.83;2.53;;;;;;;10.96;66.38;102042.34;6219981;23;20000;-73
2021/11/23 11:57:57;;;;;;;2.55;2.40;;;;;;;11.15;66.08;102051.38;6242428;23;20000;-73
2021/11/23 12:00:22;;;;;;;3.28;2.92;;;;;;;11.17;65.72;102055.56;6244383;23;20057;-73
2021/11/23 12:02:49;;;;;;;2.70;2.60;;;;;;;11.16;65.89;102064.00;6243983;23;20046;-72